sensor_id;sensor_type;location;lat;lon;timestamp;pressure;altitude;pressure_sealevel;temperature;humidity
61026;BME280;46911;32.650;-16.902;2023-04-01T00:00:07;102537.38;;;18.16;58.88
61026;BME280;46911;32.650;-16.902;2023-04-01T00:02:14;102535.69;;;18.15;57.81
61026;BME280;46911;32.650;-16.902;2023-04-01T00:04:21;102538.56;;;18.12;56.95
61026;BME280;46911;32.650;-16.902;2023-04-01T00:06:27;102529.63;;;18.11;56.21
61026;BME280;46911;32.650;-16.902;2023-04-01T00:08:28;102536.75;;;18.12;56.02
61026;BME280;46911;32.650;-16.902;2023-04-01T00:10:29;102532.44;;;18.10;55.87
61026;BME280;46911;32.650;-16.902;2023-04-01T00:12:33;102526.72;;;18.01;54.89
61026;BME280;46911;32.650;-16.902;2023-04-01T00:14:36;102541.50;;;18.09;55.39
61026;BME280;46911;32.650;-16.902;2023-04-01T00:16:43;102535.25;;;18.08;54.91
61026;BME280;46911;32.650;-16.902;2023-04-01T00:18:46;102532.53;;;18.08;53.84
61026;BME280;46911;32.650;-16.902;2023-04-01T00:20:51;102529.84;;;18.08;53.78
61026;BME280;46911;32.650;-16.902;2023-04-01T00:22:53;102515.91;;;18.01;53.98
61026;BME280;46911;32.650;-16.902;2023-04-01T00:24:56;102506.69;;;17.91;53.45
61026;BME280;46911;32.650;-16.902;2023-04-01T00:26:56;102522.81;;;18.05;53.99
61026;BME280;46911;32.650;-16.902;2023-04-01T00:29:00;102513.41;;;17.98;54.67
61026;BME280;46911;32.650;-16.902;2023-04-01T00:31:08;102520.56;;;17.99;55.49
61026;BME280;46911;32.650;-16.902;2023-04-01T00:33:10;102505.41;;;17.84;56.08
61026;BME280;46911;32.650;-16.902;2023-04-01T00:35:13;102517.50;;;17.91;55.44
61026;BME280;46911;32.650;-16.902;2023-04-01T00:37:14;102490.63;;;17.77;55.10
61026;BME280;46911;32.650;-16.902;2023-04-01T00:39:21;102488.03;;;17.75;54.95
61026;BME280;46911;32.650;-16.902;2023-04-01T00:41:22;102496.00;;;17.77;55.91
61026;BME280;46911;32.650;-16.902;2023-04-01T00:43:22;102502.50;;;17.87;56.49
61026;BME280;46911;32.650;-16.902;2023-04-01T00:47:28;102505.41;;;17.84;56.40
61026;BME280;46911;32.650;-16.902;2023-04-01T00:49:36;102498.41;;;17.81;56.84
61026;BME280;46911;32.650;-16.902;2023-04-01T00:51:41;102486.63;;;17.69;56.93
61026;BME280;46911;32.650;-16.902;2023-04-01T00:53:47;102482.97;;;17.70;57.56
61026;BME280;46911;32.650;-16.902;2023-04-01T00:56:21;102506.38;;;17.83;58.47
61026;BME280;46911;32.650;-16.902;2023-04-01T00:58:28;102488.38;;;17.70;58.35
61026;BME280;46911;32.650;-16.902;2023-04-01T01:00:34;102503.03;;;17.79;57.58
61026;BME280;46911;32.650;-16.902;2023-04-01T01:02:38;102494.09;;;17.79;56.76
61026;BME280;46911;32.650;-16.902;2023-04-01T01:04:42;102496.22;;;17.73;56.48
61026;BME280;46911;32.650;-16.902;2023-04-01T01:06:47;102491.91;;;17.71;55.50
61026;BME280;46911;32.650;-16.902;2023-04-01T01:11:10;102495.25;;;17.62;55.00
61026;BME280;46911;32.650;-16.902;2023-04-01T01:13:34;102487.47;;;17.57;55.19
61026;BME280;46911;32.650;-16.902;2023-04-01T01:15:45;102475.78;;;17.44;55.38
61026;BME280;46911;32.650;-16.902;2023-04-01T01:24:23;102483.47;;;17.50;55.59
61026;BME280;46911;32.650;-16.902;2023-04-01T01:31:37;102487.13;;;17.49;53.95
61026;BME280;46911;32.650;-16.902;2023-04-01T01:36:16;102478.50;;;17.44;52.96
61026;BME280;46911;32.650;-16.902;2023-04-01T01:38:23;102464.50;;;17.38;52.00
61026;BME280;46911;32.650;-16.902;2023-04-01T01:40:32;102472.91;;;17.47;52.05
61026;BME280;46911;32.650;-16.902;2023-04-01T01:42:40;102459.72;;;17.29;52.48
61026;BME280;46911;32.650;-16.902;2023-04-01T01:44:46;102464.47;;;17.26;53.02
61026;BME280;46911;32.650;-16.902;2023-04-01T01:46:50;102456.78;;;17.19;53.78
61026;BME280;46911;32.650;-16.902;2023-04-01T01:48:54;102475.13;;;17.27;54.23
61026;BME280;46911;32.650;-16.902;2023-04-01T01:50:56;102472.66;;;17.24;53.47
61026;BME280;46911;32.650;-16.902;2023-04-01T01:53:09;102473.63;;;17.23;53.31
61026;BME280;46911;32.650;-16.902;2023-04-01T01:55:28;102477.50;;;17.19;54.14
61026;BME280;46911;32.650;-16.902;2023-04-01T01:57:37;102458.47;;;17.07;55.08
61026;BME280;46911;32.650;-16.902;2023-04-01T01:59:50;102468.00;;;17.13;55.51
61026;BME280;46911;32.650;-16.902;2023-04-01T02:01:59;102471.00;;;17.09;56.19
61026;BME280;46911;32.650;-16.902;2023-04-01T02:04:13;102461.38;;;17.04;56.67
61026;BME280;46911;32.650;-16.902;2023-04-01T02:06:21;102466.03;;;17.02;56.91
61026;BME280;46911;32.650;-16.902;2023-04-01T02:08:28;102454.47;;;17.00;57.12
61026;BME280;46911;32.650;-16.902;2023-04-01T02:10:34;102462.91;;;17.09;57.24
61026;BME280;46911;32.650;-16.902;2023-04-01T02:12:37;102446.50;;;16.99;56.80
61026;BME280;46911;32.650;-16.902;2023-04-01T02:14:43;102461.16;;;17.07;56.60
61026;BME280;46911;32.650;-16.902;2023-04-01T02:19:07;102436.78;;;16.96;55.09
61026;BME280;46911;32.650;-16.902;2023-04-01T02:21:12;102441.00;;;17.00;54.87
61026;BME280;46911;32.650;-16.902;2023-04-01T02:23:14;102445.75;;;17.10;54.90
61026;BME280;46911;32.650;-16.902;2023-04-01T02:25:23;102444.81;;;17.11;55.06
61026;BME280;46911;32.650;-16.902;2023-04-01T02:27:26;102427.63;;;16.99;55.23
61026;BME280;46911;32.650;-16.902;2023-04-01T02:29:27;102451.38;;;17.06;55.24
61026;BME280;46911;32.650;-16.902;2023-04-01T02:31:31;102427.28;;;16.90;55.08
61026;BME280;46911;32.650;-16.902;2023-04-01T02:33:35;102421.09;;;16.88;54.97
61026;BME280;46911;32.650;-16.902;2023-04-01T02:35:37;102423.72;;;16.90;54.78
61026;BME280;46911;32.650;-16.902;2023-04-01T02:37:39;102428.44;;;16.86;55.04
61026;BME280;46911;32.650;-16.902;2023-04-01T02:39:45;102437.63;;;16.97;55.58
61026;BME280;46911;32.650;-16.902;2023-04-01T02:41:48;102433.66;;;16.89;56.04
61026;BME280;46911;32.650;-16.902;2023-04-01T02:43:52;102413.06;;;16.74;56.52
61026;BME280;46911;32.650;-16.902;2023-04-01T02:45:53;102423.97;;;16.72;57.11
61026;BME280;46911;32.650;-16.902;2023-04-01T02:47:59;102413.19;;;16.72;57.39
61026;BME280;46911;32.650;-16.902;2023-04-01T02:50:01;102434.22;;;16.80;57.57
61026;BME280;46911;32.650;-16.902;2023-04-01T02:52:03;102429.63;;;16.82;57.39
61026;BME280;46911;32.650;-16.902;2023-04-01T02:54:04;102399.91;;;16.69;57.39
61026;BME280;46911;32.650;-16.902;2023-04-01T02:56:10;102410.47;;;16.72;57.34
61026;BME280;46911;32.650;-16.902;2023-04-01T02:58:13;102418.91;;;16.81;56.92
61026;BME280;46911;32.650;-16.902;2023-04-01T03:00:15;102409.13;;;16.80;56.45
61026;BME280;46911;32.650;-16.902;2023-04-01T03:02:20;102409.19;;;16.78;55.94
61026;BME280;46911;32.650;-16.902;2023-04-01T03:04:24;102400.03;;;16.68;55.78
61026;BME280;46911;32.650;-16.902;2023-04-01T03:06:25;102422.78;;;16.77;56.01
61026;BME280;46911;32.650;-16.902;2023-04-01T03:08:26;102394.81;;;16.65;56.12
61026;BME280;46911;32.650;-16.902;2023-04-01T03:10:28;102405.09;;;16.72;55.90
61026;BME280;46911;32.650;-16.902;2023-04-01T03:12:31;102408.75;;;16.71;55.67
61026;BME280;46911;32.650;-16.902;2023-04-01T03:14:32;102399.56;;;16.61;54.85
61026;BME280;46911;32.650;-16.902;2023-04-01T03:16:33;102386.66;;;16.66;54.41
61026;BME280;46911;32.650;-16.902;2023-04-01T03:18:34;102400.38;;;16.76;54.42
61026;BME280;46911;32.650;-16.902;2023-04-01T03:20:35;102413.28;;;16.71;54.62
61026;BME280;46911;32.650;-16.902;2023-04-01T03:22:36;102390.81;;;16.57;54.51
61026;BME280;46911;32.650;-16.902;2023-04-01T03:24:40;102387.47;;;16.54;54.02
61026;BME280;46911;32.650;-16.902;2023-04-01T03:26:44;102387.69;;;16.51;54.15
61026;BME280;46911;32.650;-16.902;2023-04-01T03:28:45;102395.66;;;16.52;54.38
61026;BME280;46911;32.650;-16.902;2023-04-01T03:30:49;102406.03;;;16.59;54.24
61026;BME280;46911;32.650;-16.902;2023-04-01T03:32:52;102394.13;;;16.48;54.18
61026;BME280;46911;32.650;-16.902;2023-04-01T03:34:53;102390.13;;;16.41;54.10
61026;BME280;46911;32.650;-16.902;2023-04-01T03:36:54;102403.72;;;16.52;54.15
61026;BME280;46911;32.650;-16.902;2023-04-01T03:38:55;102381.38;;;16.37;54.08
61026;BME280;46911;32.650;-16.902;2023-04-01T03:41:12;102401.34;;;16.48;53.95
61026;BME280;46911;32.650;-16.902;2023-04-01T03:43:13;102410.41;;;16.47;53.88
61026;BME280;46911;32.650;-16.902;2023-04-01T03:45:17;102403.59;;;16.41;54.17
61026;BME280;46911;32.650;-16.902;2023-04-01T03:47:21;102398.31;;;16.39;54.19
61026;BME280;46911;32.650;-16.902;2023-04-01T03:49:21;102399.28;;;16.38;54.24
61026;BME280;46911;32.650;-16.902;2023-04-01T03:51:26;102377.38;;;16.30;54.80
61026;BME280;46911;32.650;-16.902;2023-04-01T03:53:29;102394.84;;;16.37;54.93
61026;BME280;46911;32.650;-16.902;2023-04-01T03:55:33;102400.63;;;16.31;55.20
61026;BME280;46911;32.650;-16.902;2023-04-01T03:57:38;102372.78;;;16.18;55.88
61026;BME280;46911;32.650;-16.902;2023-04-01T03:59:52;102368.28;;;16.18;56.42
61026;BME280;46911;32.650;-16.902;2023-04-01T04:01:55;102384.31;;;16.20;57.07
61026;BME280;46911;32.650;-16.902;2023-04-01T04:03:57;102360.00;;;16.07;57.54
61026;BME280;46911;32.650;-16.902;2023-04-01T04:06:01;102380.78;;;16.19;57.83
61026;BME280;46911;32.650;-16.902;2023-04-01T04:08:03;102384.88;;;16.25;57.71
61026;BME280;46911;32.650;-16.902;2023-04-01T04:10:09;102378.16;;;16.18;57.29
61026;BME280;46911;32.650;-16.902;2023-04-01T04:12:11;102360.78;;;16.09;57.50
61026;BME280;46911;32.650;-16.902;2023-04-01T04:14:12;102359.16;;;16.06;57.91
61026;BME280;46911;32.650;-16.902;2023-04-01T04:16:16;102365.00;;;16.13;57.80
61026;BME280;46911;32.650;-16.902;2023-04-01T04:18:23;102350.84;;;15.97;57.73
61026;BME280;46911;32.650;-16.902;2023-04-01T04:20:24;102364.75;;;16.03;57.50
61026;BME280;46911;32.650;-16.902;2023-04-01T04:22:25;102355.66;;;15.92;57.10
61026;BME280;46911;32.650;-16.902;2023-04-01T04:24:26;102357.34;;;15.93;57.01
61026;BME280;46911;32.650;-16.902;2023-04-01T04:26:40;102347.69;;;15.90;56.92
61026;BME280;46911;32.650;-16.902;2023-04-01T04:28:43;102368.50;;;16.01;57.11
61026;BME280;46911;32.650;-16.902;2023-04-01T04:30:44;102344.53;;;15.83;57.31
61026;BME280;46911;32.650;-16.902;2023-04-01T04:32:48;102346.22;;;15.84;57.05
61026;BME280;46911;32.650;-16.902;2023-04-01T04:34:51;102359.41;;;15.89;57.60
61026;BME280;46911;32.650;-16.902;2023-04-01T04:36:55;102363.72;;;15.92;57.25
61026;BME280;46911;32.650;-16.902;2023-04-01T04:39:00;102357.28;;;15.94;56.12
61026;BME280;46911;32.650;-16.902;2023-04-01T04:41:23;102346.13;;;15.86;55.52
61026;BME280;46911;32.650;-16.902;2023-04-01T04:43:26;102340.75;;;15.86;55.08
61026;BME280;46911;32.650;-16.902;2023-04-01T04:45:33;102358.91;;;15.97;55.66
61026;BME280;46911;32.650;-16.902;2023-04-01T04:47:34;102362.56;;;15.96;55.70
61026;BME280;46911;32.650;-16.902;2023-04-01T04:49:35;102361.03;;;15.92;55.71
61026;BME280;46911;32.650;-16.902;2023-04-01T04:51:41;102352.28;;;15.88;55.66
61026;BME280;46911;32.650;-16.902;2023-04-01T04:53:45;102352.19;;;15.89;55.38
61026;BME280;46911;32.650;-16.902;2023-04-01T04:55:49;102358.63;;;15.87;55.58
61026;BME280;46911;32.650;-16.902;2023-04-01T04:58:07;102331.63;;;15.74;55.20
61026;BME280;46911;32.650;-16.902;2023-04-01T05:00:15;102351.50;;;15.86;54.29
61026;BME280;46911;32.650;-16.902;2023-04-01T05:02:23;102333.31;;;15.75;53.93
61026;BME280;46911;32.650;-16.902;2023-04-01T05:04:26;102304.16;;;15.54;54.07
61026;BME280;46911;32.650;-16.902;2023-04-01T05:06:32;102357.25;;;15.80;54.31
61026;BME280;46911;32.650;-16.902;2023-04-01T05:08:38;102352.16;;;15.75;54.81
61026;BME280;46911;32.650;-16.902;2023-04-01T05:10:45;102348.81;;;15.71;54.94
61026;BME280;46911;32.650;-16.902;2023-04-01T05:12:49;102336.34;;;15.56;54.81
61026;BME280;46911;32.650;-16.902;2023-04-01T05:14:53;102351.78;;;15.67;54.46
61026;BME280;46911;32.650;-16.902;2023-04-01T05:16:57;102342.09;;;15.64;53.99
61026;BME280;46911;32.650;-16.902;2023-04-01T05:18:58;102321.47;;;15.50;53.82
61026;BME280;46911;32.650;-16.902;2023-04-01T05:21:02;102322.13;;;15.54;53.68
61026;BME280;46911;32.650;-16.902;2023-04-01T05:23:02;102350.34;;;15.61;53.72
61026;BME280;46911;32.650;-16.902;2023-04-01T05:25:06;102352.28;;;15.59;53.92
61026;BME280;46911;32.650;-16.902;2023-04-01T05:27:07;102323.47;;;15.47;53.41
61026;BME280;46911;32.650;-16.902;2023-04-01T05:29:14;102333.94;;;15.51;53.28
61026;BME280;46911;32.650;-16.902;2023-04-01T05:31:19;102340.09;;;15.53;53.46
61026;BME280;46911;32.650;-16.902;2023-04-01T05:33:22;102335.00;;;15.49;54.17
61026;BME280;46911;32.650;-16.902;2023-04-01T05:35:26;102336.91;;;15.47;54.27
61026;BME280;46911;32.650;-16.902;2023-04-01T05:37:29;102347.19;;;15.54;54.54
61026;BME280;46911;32.650;-16.902;2023-04-01T05:39:30;102350.94;;;15.52;54.20
61026;BME280;46911;32.650;-16.902;2023-04-01T05:41:37;102337.50;;;15.37;53.77
61026;BME280;46911;32.650;-16.902;2023-04-01T05:43:41;102339.59;;;15.47;53.19
61026;BME280;46911;32.650;-16.902;2023-04-01T05:46:03;102359.22;;;15.49;53.03
61026;BME280;46911;32.650;-16.902;2023-04-01T05:48:12;102346.63;;;15.49;54.72
61026;BME280;46911;32.650;-16.902;2023-04-01T05:50:15;102336.34;;;15.42;54.96
61026;BME280;46911;32.650;-16.902;2023-04-01T05:52:16;102345.09;;;15.45;54.87
61026;BME280;46911;32.650;-16.902;2023-04-01T05:54:19;102334.13;;;15.34;55.35
61026;BME280;46911;32.650;-16.902;2023-04-01T05:56:20;102354.56;;;15.36;56.79
61026;BME280;46911;32.650;-16.902;2023-04-01T05:58:27;102344.03;;;15.33;57.52
61026;BME280;46911;32.650;-16.902;2023-04-01T06:00:29;102364.00;;;15.44;58.35
61026;BME280;46911;32.650;-16.902;2023-04-01T06:02:32;102337.22;;;15.28;58.92
61026;BME280;46911;32.650;-16.902;2023-04-01T06:04:40;102341.91;;;15.24;59.42
61026;BME280;46911;32.650;-16.902;2023-04-01T06:06:41;102361.41;;;15.28;59.62
61026;BME280;46911;32.650;-16.902;2023-04-01T06:08:47;102355.44;;;15.22;60.04
61026;BME280;46911;32.650;-16.902;2023-04-01T06:13:06;102361.66;;;15.23;61.53
61026;BME280;46911;32.650;-16.902;2023-04-01T06:17:27;102370.63;;;15.23;62.63
61026;BME280;46911;32.650;-16.902;2023-04-01T06:28:57;102375.69;;;15.28;59.33
61026;BME280;46911;32.650;-16.902;2023-04-01T06:42:40;102388.19;;;15.29;55.49
61026;BME280;46911;32.650;-16.902;2023-04-01T06:47:56;102388.50;;;15.25;55.72
61026;BME280;46911;32.650;-16.902;2023-04-01T06:56:00;102383.56;;;15.17;54.47
61026;BME280;46911;32.650;-16.902;2023-04-01T06:58:20;102386.91;;;15.20;53.89
61026;BME280;46911;32.650;-16.902;2023-04-01T07:00:32;102386.84;;;15.22;52.91
61026;BME280;46911;32.650;-16.902;2023-04-01T07:02:42;102376.00;;;15.23;51.93
61026;BME280;46911;32.650;-16.902;2023-04-01T07:04:51;102407.59;;;15.34;52.36
61026;BME280;46911;32.650;-16.902;2023-04-01T07:06:59;102413.56;;;15.39;51.84
61026;BME280;46911;32.650;-16.902;2023-04-01T07:09:12;102413.66;;;15.38;51.63
61026;BME280;46911;32.650;-16.902;2023-04-01T07:11:39;102416.34;;;15.38;51.69
61026;BME280;46911;32.650;-16.902;2023-04-01T07:14:06;102393.47;;;15.31;51.45
61026;BME280;46911;32.650;-16.902;2023-04-01T07:16:15;102417.94;;;15.40;51.97
61026;BME280;46911;32.650;-16.902;2023-04-01T07:18:29;102410.47;;;15.46;52.16
61026;BME280;46911;32.650;-16.902;2023-04-01T07:20:32;102397.44;;;15.39;51.74
61026;BME280;46911;32.650;-16.902;2023-04-01T07:22:51;102392.06;;;15.39;51.25
61026;BME280;46911;32.650;-16.902;2023-04-01T07:25:12;102411.84;;;15.53;51.29
61026;BME280;46911;32.650;-16.902;2023-04-01T07:27:14;102400.78;;;15.43;50.82
61026;BME280;46911;32.650;-16.902;2023-04-01T07:29:18;102408.69;;;15.61;50.05
61026;BME280;46911;32.650;-16.902;2023-04-01T07:34:41;102394.16;;;15.63;49.45
61026;BME280;46911;32.650;-16.902;2023-04-01T07:36:57;102412.84;;;15.81;49.17
61026;BME280;46911;32.650;-16.902;2023-04-01T07:41:34;102419.72;;;15.99;48.77
61026;BME280;46911;32.650;-16.902;2023-04-01T07:43:57;102405.66;;;16.09;48.95
61026;BME280;46911;32.650;-16.902;2023-04-01T07:50:29;102422.63;;;16.38;49.19
61026;BME280;46911;32.650;-16.902;2023-04-01T08:02:53;102424.28;;;16.81;54.03
61026;BME280;46911;32.650;-16.902;2023-04-01T08:07:25;102429.25;;;17.01;57.88
61026;BME280;46911;32.650;-16.902;2023-04-01T08:09:55;102413.94;;;17.02;59.37
61026;BME280;46911;32.650;-16.902;2023-04-01T08:17:05;102432.53;;;17.32;58.46
61026;BME280;46911;32.650;-16.902;2023-04-01T08:21:42;102412.47;;;17.36;58.07
61026;BME280;46911;32.650;-16.902;2023-04-01T08:23:51;102427.47;;;17.53;57.19
61026;BME280;46911;32.650;-16.902;2023-04-01T08:26:02;102423.47;;;17.59;55.49
61026;BME280;46911;32.650;-16.902;2023-04-01T08:30:18;102420.34;;;17.65;54.66
61026;BME280;46911;32.650;-16.902;2023-04-01T08:32:26;102422.59;;;17.71;54.84
61026;BME280;46911;32.650;-16.902;2023-04-01T08:34:39;102416.66;;;17.79;54.87
61026;BME280;46911;32.650;-16.902;2023-04-01T08:36:52;102417.19;;;17.84;56.36
61026;BME280;46911;32.650;-16.902;2023-04-01T08:38:59;102431.00;;;18.05;56.16
61026;BME280;46911;32.650;-16.902;2023-04-01T08:46:19;102443.75;;;18.40;57.98
61026;BME280;46911;32.650;-16.902;2023-04-01T08:53:09;102442.69;;;18.67;60.72
61026;BME280;46911;32.650;-16.902;2023-04-01T08:55:31;102450.94;;;18.77;61.69
61026;BME280;46911;32.650;-16.902;2023-04-01T09:00:31;102451.97;;;19.00;62.56
61026;BME280;46911;32.650;-16.902;2023-04-01T09:03:20;102433.88;;;19.01;62.63
61026;BME280;46911;32.650;-16.902;2023-04-01T09:10:28;102451.22;;;19.45;63.06
61026;BME280;46911;32.650;-16.902;2023-04-01T09:15:37;102438.84;;;20.11;63.35
61026;BME280;46911;32.650;-16.902;2023-04-01T09:35:23;102451.56;;;26.04;48.31
61026;BME280;46911;32.650;-16.902;2023-04-01T09:51:47;102454.44;;;25.68;46.66
61026;BME280;46911;32.650;-16.902;2023-04-01T10:02:58;102447.38;;;26.35;43.71
61026;BME280;46911;32.650;-16.902;2023-04-01T10:07:45;102463.84;;;26.68;45.58
61026;BME280;46911;32.650;-16.902;2023-04-01T10:20:46;102470.53;;;25.27;50.70
61026;BME280;46911;32.650;-16.902;2023-04-01T10:35:05;102445.28;;;29.03;39.86
61026;BME280;46911;32.650;-16.902;2023-04-01T10:58:01;102453.38;;;26.47;43.33
61026;BME280;46911;32.650;-16.902;2023-04-01T11:12:59;102434.50;;;32.54;31.91
61026;BME280;46911;32.650;-16.902;2023-04-01T11:30:06;102442.59;;;33.23;32.06
61026;BME280;46911;32.650;-16.902;2023-04-01T11:37:15;102415.66;;;26.83;43.81
61026;BME280;46911;32.650;-16.902;2023-04-01T11:40:14;102432.41;;;27.38;42.99
61026;BME280;46911;32.650;-16.902;2023-04-01T11:45:22;102425.34;;;28.39;41.53
61026;BME280;46911;32.650;-16.902;2023-04-01T11:47:52;102432.06;;;28.29;40.90
61026;BME280;46911;32.650;-16.902;2023-04-01T11:52:57;102422.09;;;28.04;42.41
61026;BME280;46911;32.650;-16.902;2023-04-01T11:59:46;102416.16;;;28.24;41.91
61026;BME280;46911;32.650;-16.902;2023-04-01T12:10:44;102418.91;;;26.87;43.83
61026;BME280;46911;32.650;-16.902;2023-04-01T12:20:16;102424.75;;;33.05;33.48
61026;BME280;46911;32.650;-16.902;2023-04-01T12:23:15;102424.53;;;33.54;32.27
61026;BME280;46911;32.650;-16.902;2023-04-01T12:25:53;102416.06;;;33.29;32.42
61026;BME280;46911;32.650;-16.902;2023-04-01T12:28:10;102408.19;;;33.91;32.14
61026;BME280;46911;32.650;-16.902;2023-04-01T12:30:35;102404.16;;;34.64;30.90
61026;BME280;46911;32.650;-16.902;2023-04-01T12:42:32;102397.03;;;36.12;28.89
61026;BME280;46911;32.650;-16.902;2023-04-01T12:52:13;102383.97;;;36.31;29.00
61026;BME280;46911;32.650;-16.902;2023-04-01T12:57:13;102396.47;;;35.73;30.25
61026;BME280;46911;32.650;-16.902;2023-04-01T13:11:06;102379.44;;;35.50;30.20
61026;BME280;46911;32.650;-16.902;2023-04-01T13:16:35;102386.03;;;35.38;31.13
61026;BME280;46911;32.650;-16.902;2023-04-01T13:25:50;102365.81;;;36.94;27.83
61026;BME280;46911;32.650;-16.902;2023-04-01T13:28:13;102373.44;;;36.99;27.68
61026;BME280;46911;32.650;-16.902;2023-04-01T13:32:29;102364.31;;;36.44;28.56
61026;BME280;46911;32.650;-16.902;2023-04-01T13:34:45;102368.88;;;36.39;28.68
61026;BME280;46911;32.650;-16.902;2023-04-01T13:58:05;102351.66;;;36.72;27.68
61026;BME280;46911;32.650;-16.902;2023-04-01T14:03:03;102355.19;;;37.15;27.64
61026;BME280;46911;32.650;-16.902;2023-04-01T14:07:47;102344.81;;;36.32;28.58
61026;BME280;46911;32.650;-16.902;2023-04-01T14:12:38;102339.34;;;35.83;29.23
61026;BME280;46911;32.650;-16.902;2023-04-01T14:22:20;102333.69;;;35.23;29.53
61026;BME280;46911;32.650;-16.902;2023-04-01T14:25:00;102344.28;;;33.54;32.38
61026;BME280;46911;32.650;-16.902;2023-04-01T14:27:28;102340.13;;;33.31;32.68
61026;BME280;46911;32.650;-16.902;2023-04-01T14:34:24;102319.75;;;32.25;34.04
61026;BME280;46911;32.650;-16.902;2023-04-01T14:38:47;102332.13;;;31.74;35.50
61026;BME280;46911;32.650;-16.902;2023-04-01T14:41:13;102325.81;;;33.41;32.70
61026;BME280;46911;32.650;-16.902;2023-04-01T14:43:38;102312.63;;;34.96;30.70
61026;BME280;46911;32.650;-16.902;2023-04-01T14:45:46;102333.97;;;34.45;30.92
61026;BME280;46911;32.650;-16.902;2023-04-01T14:50:11;102317.47;;;33.48;32.33
61026;BME280;46911;32.650;-16.902;2023-04-01T14:52:28;102317.03;;;35.04;30.26
61026;BME280;46911;32.650;-16.902;2023-04-01T14:54:37;102310.53;;;35.10;29.66
61026;BME280;46911;32.650;-16.902;2023-04-01T14:57:13;102318.19;;;33.16;32.93
61026;BME280;46911;32.650;-16.902;2023-04-01T14:59:26;102307.72;;;31.71;34.99
61026;BME280;46911;32.650;-16.902;2023-04-01T15:04:14;102331.41;;;28.91;40.97
61026;BME280;46911;32.650;-16.902;2023-04-01T15:11:04;102325.22;;;37.75;27.19
61026;BME280;46911;32.650;-16.902;2023-04-01T15:15:41;102300.28;;;37.80;26.55
61026;BME280;46911;32.650;-16.902;2023-04-01T15:18:10;102306.00;;;38.19;25.87
61026;BME280;46911;32.650;-16.902;2023-04-01T15:25:00;102309.44;;;40.48;23.59
61026;BME280;46911;32.650;-16.902;2023-04-01T15:27:15;102297.97;;;38.23;25.08
61026;BME280;46911;32.650;-16.902;2023-04-01T15:32:06;102314.84;;;38.16;25.82
61026;BME280;46911;32.650;-16.902;2023-04-01T15:41:42;102309.47;;;37.51;26.54
61026;BME280;46911;32.650;-16.902;2023-04-01T15:43:51;102320.09;;;38.12;26.36
61026;BME280;46911;32.650;-16.902;2023-04-01T15:46:12;102310.09;;;39.46;24.52
61026;BME280;46911;32.650;-16.902;2023-04-01T15:48:35;102315.53;;;40.45;23.34
61026;BME280;46911;32.650;-16.902;2023-04-01T16:00:25;102313.22;;;38.49;25.22
61026;BME280;46911;32.650;-16.902;2023-04-01T16:04:59;102281.69;;;37.28;26.91
61026;BME280;46911;32.650;-16.902;2023-04-01T16:17:05;102283.09;;;38.85;24.63
61026;BME280;46911;32.650;-16.902;2023-04-01T16:19:09;102292.41;;;38.57;25.28
61026;BME280;46911;32.650;-16.902;2023-04-01T16:28:36;102267.59;;;39.16;24.68
61026;BME280;46911;32.650;-16.902;2023-04-01T16:33:22;102263.53;;;38.12;25.97
61026;BME280;46911;32.650;-16.902;2023-04-01T16:38:11;102264.34;;;38.63;25.08
61026;BME280;46911;32.650;-16.902;2023-04-01T16:40:23;102266.50;;;38.95;24.89
61026;BME280;46911;32.650;-16.902;2023-04-01T16:42:40;102274.63;;;39.68;24.14
61026;BME280;46911;32.650;-16.902;2023-04-01T16:44:54;102270.47;;;40.04;23.52
61026;BME280;46911;32.650;-16.902;2023-04-01T16:46:59;102266.03;;;39.75;23.82
61026;BME280;46911;32.650;-16.902;2023-04-01T16:51:17;102270.13;;;38.57;25.16
61026;BME280;46911;32.650;-16.902;2023-04-01T16:53:34;102275.50;;;36.49;27.88
61026;BME280;46911;32.650;-16.902;2023-04-01T16:58:01;102272.09;;;36.35;28.23
61026;BME280;46911;32.650;-16.902;2023-04-01T17:02:23;102274.59;;;37.61;26.31
61026;BME280;46911;32.650;-16.902;2023-04-01T17:04:47;102276.78;;;37.18;27.04
61026;BME280;46911;32.650;-16.902;2023-04-01T17:13:53;102280.13;;;29.94;38.36
61026;BME280;46911;32.650;-16.902;2023-04-01T17:19:07;102281.25;;;29.63;39.06
61026;BME280;46911;32.650;-16.902;2023-04-01T17:27:55;102280.00;;;27.20;44.15
61026;BME280;46911;32.650;-16.902;2023-04-01T17:32:16;102277.94;;;27.70;43.47
61026;BME280;46911;32.650;-16.902;2023-04-01T17:37:01;102275.91;;;28.19;42.08
61026;BME280;46911;32.650;-16.902;2023-04-01T17:39:32;102276.63;;;28.13;42.82
61026;BME280;46911;32.650;-16.902;2023-04-01T17:48:49;102279.19;;;27.12;45.28
61026;BME280;46911;32.650;-16.902;2023-04-01T17:51:06;102280.63;;;26.91;45.41
61026;BME280;46911;32.650;-16.902;2023-04-01T18:00:03;102275.41;;;27.21;45.81
61026;BME280;46911;32.650;-16.902;2023-04-01T18:07:11;102293.81;;;26.05;48.17
61026;BME280;46911;32.650;-16.902;2023-04-01T18:09:36;102281.38;;;25.60;49.46
61026;BME280;46911;32.650;-16.902;2023-04-01T18:11:54;102287.78;;;25.42;49.77
61026;BME280;46911;32.650;-16.902;2023-04-01T18:19:13;102297.72;;;25.17;50.26
61026;BME280;46911;32.650;-16.902;2023-04-01T18:21:47;102296.63;;;25.01;50.66
61026;BME280;46911;32.650;-16.902;2023-04-01T18:26:23;102292.59;;;24.87;51.09
61026;BME280;46911;32.650;-16.902;2023-04-01T18:28:41;102295.44;;;24.78;51.42
61026;BME280;46911;32.650;-16.902;2023-04-01T18:37:50;102298.34;;;23.20;55.48
61026;BME280;46911;32.650;-16.902;2023-04-01T18:40:18;102310.75;;;23.43;55.49
61026;BME280;46911;32.650;-16.902;2023-04-01T18:46:50;102314.19;;;21.18;62.30